Time;durP1;ratioP1;P1;durP2;ratioP2;P2;SDS_P1;SDS_P2;PMS_P1;PMS_P2;Temp;Humidity;BMP_temperature;BMP_pressure;BME280_temperature;BME280_humidity;BME280_pressure;Samples;Min_cycle;Max_cycle;Signal;HPM_P1;HPM_P2
2022/01/10 00:01:51;;;;;;;;;;;3.60;99.90;;;;;;5116083;28;19973;-84
2022/01/10 00:04:19;;;;;;;;;;;3.70;99.90;;;;;;5116517;28;19973;-84
2022/01/10 00:06:48;;;;;;;;;;;3.60;99.90;;;;;;5116164;28;19923;-84
2022/01/10 00:09:17;;;;;;;;;;;3.70;99.90;;;;;;5115942;28;19935;-84
2022/01/10 00:11:47;;;;;;;;;;;3.70;99.90;;;;;;5115983;28;19949;-84
2022/01/10 00:14:15;;;;;;;;;;;3.70;99.90;;;;;;5116253;28;19928;-81
2022/01/10 00:16:43;;;;;;;;;;;3.80;99.90;;;;;;5115894;28;19962;-81
2022/01/10 00:19:12;;;;;;;;;;;3.80;99.90;;;;;;5115497;28;19923;-81
2022/01/10 00:21:40;;;;;;;;;;;3.70;99.90;;;;;;5116000;28;19924;-81
2022/01/10 00:24:08;;;;;;;;;;;3.70;99.90;;;;;;5116076;28;19970;-81
2022/01/10 00:26:37;;;;;;;;;;;3.70;99.90;;;;;;5115594;28;19919;-81
2022/01/10 00:29:06;;;;;;;;;;;3.70;99.90;;;;;;5115130;28;19954;-81
2022/01/10 00:31:35;;;;;;;;;;;3.70;99.90;;;;;;5115675;28;19923;-81
2022/01/10 00:34:03;;;;;;;;;;;3.70;99.90;;;;;;5116284;28;20018;-81
2022/01/10 00:36:31;;;;;;;;;;;3.70;99.90;;;;;;5115376;28;19963;-81
2022/01/10 00:38:59;;;;;;;;;;;3.70;99.90;;;;;;5115041;28;19967;-81
2022/01/10 00:41:28;;;;;;;;;;;3.70;99.90;;;;;;5115153;28;19919;-81
2022/01/10 00:43:57;;;;;;;;;;;3.70;99.90;;;;;;5115507;28;20014;-81
2022/01/10 00:46:27;;;;;;;;;;;3.80;99.90;;;;;;5115268;28;19920;-81
2022/01/10 00:48:56;;;;;;;;;;;3.80;99.90;;;;;;5115400;28;19958;-81
2022/01/10 00:51:24;;;;;;;;;;;3.80;99.90;;;;;;5115479;28;19919;-80
2022/01/10 00:53:52;;;;;;;;;;;3.90;99.90;;;;;;5114171;28;19959;-80
2022/01/10 00:56:21;;;;;;;;;;;3.90;99.90;;;;;;5114847;28;20010;-80
2022/01/10 00:58:49;;;;;;;;;;;3.90;99.90;;;;;;5114816;28;19962;-80
2022/01/10 01:01:18;;;;;;;;;;;3.90;99.90;;;;;;5115280;28;19978;-80
2022/01/10 01:03:48;;;;;;;;;;;3.90;99.90;;;;;;5114937;28;19919;-80
2022/01/10 01:06:17;;;;;;;;;;;3.90;99.90;;;;;;5114913;28;19988;-80
2022/01/10 01:08:46;;;;;;;;;;;3.90;99.90;;;;;;5113818;28;19970;-80
2022/01/10 01:13:59;;;;;;;;;;;3.90;99.90;;;;;;5114620;28;19983;-80
2022/01/10 01:16:43;;;;;;;;;;;3.90;99.90;;;;;;5114849;28;20010;-80
2022/01/10 01:24:50;;;;;;;;;;;3.90;99.90;;;;;;5114848;28;19994;-83
2022/01/10 01:27:18;;;;;;;;;;;3.90;99.90;;;;;;5114488;28;20015;-83
2022/01/10 01:29:46;;;;;;;;;;;3.90;99.90;;;;;;5114119;28;19923;-83
2022/01/10 01:32:14;;;;;;;;;;;3.90;99.90;;;;;;5114250;28;19920;-83
2022/01/10 01:34:44;;;;;;;;;;;3.90;99.90;;;;;;5114272;28;19964;-83
2022/01/10 01:37:13;;;;;;;;;;;3.90;99.90;;;;;;5114393;28;19961;-83
2022/01/10 01:39:41;;;;;;;;;;;3.90;99.90;;;;;;5114126;28;19970;-83
2022/01/10 01:42:31;;;;;;;;;;;3.90;99.90;;;;;;5114127;28;19951;-83
2022/01/10 01:45:00;;;;;;;;;;;3.90;99.90;;;;;;5114366;28;19920;-83
2022/01/10 01:47:28;;;;;;;;;;;3.90;99.90;;;;;;5114127;28;19920;-83
2022/01/10 01:49:59;;;;;;;;;;;3.90;99.90;;;;;;5113305;28;19926;-83
2022/01/10 01:52:28;;;;;;;;;;;3.90;99.90;;;;;;5114364;28;19919;-83
2022/01/10 01:54:56;;;;;;;;;;;3.90;99.90;;;;;;5113257;28;19954;-83
2022/01/10 01:57:24;;;;;;;;;;;3.90;99.90;;;;;;5113566;28;19923;-83
2022/01/10 01:59:52;;;;;;;;;;;3.90;99.90;;;;;;5113331;28;19971;-83
2022/01/10 02:02:21;;;;;;;;;;;3.90;99.90;;;;;;5114080;28;19966;-83
2022/01/10 02:04:49;;;;;;;;;;;3.90;99.90;;;;;;5113880;28;19926;-83
2022/01/10 02:07:19;;;;;;;;;;;4.00;99.90;;;;;;5113996;28;19919;-80
2022/01/10 02:09:47;;;;;;;;;;;4.00;99.90;;;;;;5113552;28;19919;-80
2022/01/10 02:12:16;;;;;;;;;;;4.00;99.90;;;;;;5113661;28;19920;-80
2022/01/10 02:14:46;;;;;;;;;;;4.00;99.90;;;;;;5113715;28;20019;-80
2022/01/10 02:17:18;;;;;;;;;;;4.00;99.90;;;;;;5113816;28;19923;-80
2022/01/10 02:19:55;;;;;;;;;;;4.00;99.90;;;;;;5113167;28;19965;-80
2022/01/10 02:22:23;;;;;;;;;;;4.00;99.90;;;;;;5113452;28;20015;-80
2022/01/10 02:24:51;;;;;;;;;;;4.00;99.90;;;;;;5113593;28;19923;-80
2022/01/10 02:27:21;;;;;;;;;;;3.90;99.90;;;;;;5113463;28;19920;-83
2022/01/10 02:29:49;;;;;;;;;;;3.90;99.90;;;;;;5113319;28;19920;-80
2022/01/10 02:32:18;;;;;;;;;;;3.90;99.90;;;;;;5113443;28;19959;-80
2022/01/10 02:34:49;;;;;;;;;;;3.90;99.90;;;;;;5113420;28;19988;-80
2022/01/10 02:37:32;;;;;;;;;;;3.90;99.90;;;;;;5113284;28;19972;-80
2022/01/10 02:40:03;;;;;;;;;;;3.80;99.90;;;;;;5113099;28;19920;-80
2022/01/10 02:42:32;;;;;;;;;;;3.90;99.90;;;;;;5114058;28;19965;-80
2022/01/10 02:45:00;;;;;;;;;;;3.80;99.90;;;;;;5113393;28;19920;-80
2022/01/10 02:47:31;;;;;;;;;;;3.90;99.90;;;;;;5113177;28;19927;-80
2022/01/10 02:49:59;;;;;;;;;;;3.90;99.90;;;;;;5112709;28;19919;-80
2022/01/10 02:52:27;;;;;;;;;;;3.90;99.90;;;;;;5113321;28;19919;-80
2022/01/10 02:55:00;;;;;;;;;;;3.90;99.90;;;;;;5113538;28;19920;-80
2022/01/10 02:57:28;;;;;;;;;;;3.90;99.90;;;;;;5113439;28;19919;-80
2022/01/10 02:59:57;;;;;;;;;;;3.90;99.90;;;;;;5112886;28;19923;-80
2022/01/10 03:02:29;;;;;;;;;;;3.90;99.90;;;;;;5113153;28;19958;-80
2022/01/10 03:04:58;;;;;;;;;;;3.90;99.90;;;;;;5113639;28;20006;-80
2022/01/10 03:07:27;;;;;;;;;;;3.90;99.90;;;;;;5113427;28;19919;-80
2022/01/10 03:09:58;;;;;;;;;;;3.90;99.90;;;;;;5112539;28;19926;-79
2022/01/10 03:12:30;;;;;;;;;;;3.90;99.90;;;;;;5113240;28;19919;-80
2022/01/10 03:14:59;;;;;;;;;;;3.90;99.90;;;;;;5113299;28;19952;-80
2022/01/10 03:17:27;;;;;;;;;;;3.90;99.90;;;;;;5113100;28;19920;-80
2022/01/10 03:19:58;;;;;;;;;;;3.90;99.90;;;;;;5112163;28;19923;-80
2022/01/10 03:22:27;;;;;;;;;;;3.90;99.90;;;;;;5112890;28;19920;-80
2022/01/10 03:24:57;;;;;;;;;;;3.90;99.90;;;;;;5113340;28;19924;-80
2022/01/10 03:27:25;;;;;;;;;;;3.80;99.90;;;;;;5112497;28;19924;-80
2022/01/10 03:29:54;;;;;;;;;;;3.90;99.90;;;;;;5112506;28;19959;-80
2022/01/10 03:32:22;;;;;;;;;;;3.90;99.90;;;;;;5114670;28;19919;-80
2022/01/10 03:34:54;;;;;;;;;;;3.90;99.90;;;;;;5116796;28;19919;-80
2022/01/10 03:37:22;;;;;;;;;;;3.90;99.90;;;;;;5116862;28;19919;-80
2022/01/10 03:39:50;;;;;;;;;;;3.90;99.90;;;;;;5116612;28;19951;-80
2022/01/10 03:42:21;;;;;;;;;;;3.90;99.90;;;;;;5117032;28;19919;-80
2022/01/10 03:44:49;;;;;;;;;;;3.90;99.90;;;;;;5116970;28;19959;-80
2022/01/10 03:47:20;;;;;;;;;;;3.90;99.90;;;;;;5116639;28;19950;-80
2022/01/10 03:49:49;;;;;;;;;;;3.90;99.90;;;;;;5116264;28;19959;-80
2022/01/10 03:52:17;;;;;;;;;;;3.90;99.90;;;;;;5116148;28;19985;-80
2022/01/10 03:54:45;;;;;;;;;;;3.90;99.90;;;;;;5115603;28;20031;-80
2022/01/10 03:57:14;;;;;;;;;;;3.80;99.90;;;;;;5116348;28;19930;-80
2022/01/10 03:59:44;;;;;;;;;;;3.70;99.90;;;;;;5116130;28;19963;-80
2022/01/10 04:02:12;;;;;;;;;;;3.70;99.90;;;;;;5116172;28;20015;-80
2022/01/10 04:04:40;;;;;;;;;;;3.60;99.90;;;;;;5116421;28;19931;-80
2022/01/10 04:07:09;;;;;;;;;;;3.60;99.90;;;;;;5116340;28;19920;-80
2022/01/10 04:09:38;;;;;;;;;;;3.60;99.90;;;;;;5115535;28;19919;-80
2022/01/10 04:12:06;;;;;;;;;;;3.50;99.90;;;;;;5116096;28;19973;-80
2022/01/10 04:14:35;;;;;;;;;;;3.50;99.90;;;;;;5116428;28;19998;-80
2022/01/10 04:17:05;;;;;;;;;;;3.50;99.90;;;;;;5115570;28;19919;-80
2022/01/10 04:19:33;;;;;;;;;;;3.50;99.90;;;;;;5115741;28;19996;-80
2022/01/10 04:22:03;;;;;;;;;;;3.50;99.90;;;;;;5115947;28;19942;-80
2022/01/10 04:24:31;;;;;;;;;;;3.50;99.90;;;;;;5115738;28;20014;-80
2022/01/10 04:27:00;;;;;;;;;;;3.40;99.90;;;;;;5115816;28;19958;-80
2022/01/10 04:29:28;;;;;;;;;;;3.30;99.90;;;;;;5115317;28;19955;-80
2022/01/10 04:31:56;;;;;;;;;;;3.30;99.90;;;;;;5116308;28;19919;-80
2022/01/10 04:34:26;;;;;;;;;;;3.40;99.90;;;;;;5115555;28;19979;-80
2022/01/10 04:36:54;;;;;;;;;;;3.30;99.90;;;;;;5115377;28;19941;-80
2022/01/10 04:39:22;;;;;;;;;;;3.30;99.90;;;;;;5115353;28;19919;-80
2022/01/10 04:41:51;;;;;;;;;;;3.30;99.90;;;;;;5115327;28;19920;-80
2022/01/10 04:44:19;;;;;;;;;;;3.30;99.90;;;;;;5115297;28;19923;-80
2022/01/10 04:46:48;;;;;;;;;;;3.20;99.90;;;;;;5115516;28;19931;-83
2022/01/10 04:49:21;;;;;;;;;;;3.20;99.90;;;;;;5114858;28;19923;-83
2022/01/10 04:51:51;;;;;;;;;;;3.20;99.90;;;;;;5115702;28;19920;-80
2022/01/10 04:54:20;;;;;;;;;;;3.20;99.90;;;;;;5113881;28;19923;-80
2022/01/10 04:56:48;;;;;;;;;;;3.20;99.90;;;;;;5115447;28;19919;-80
2022/01/10 04:59:16;;;;;;;;;;;3.20;99.90;;;;;;5114887;28;19923;-80
2022/01/10 05:01:44;;;;;;;;;;;3.20;99.90;;;;;;5115030;28;19976;-80
2022/01/10 05:04:12;;;;;;;;;;;3.20;99.90;;;;;;5115071;28;19926;-80
2022/01/10 05:06:42;;;;;;;;;;;3.20;99.90;;;;;;5114745;28;19927;-80
2022/01/10 05:09:12;;;;;;;;;;;3.20;99.90;;;;;;5114338;28;19930;-80
2022/01/10 05:11:40;;;;;;;;;;;3.10;99.90;;;;;;5114524;28;19919;-80
2022/01/10 05:14:08;;;;;;;;;;;3.20;99.90;;;;;;5114753;28;19981;-80
2022/01/10 05:16:38;;;;;;;;;;;3.20;99.90;;;;;;5114771;28;19951;-80
2022/01/10 05:19:07;;;;;;;;;;;3.20;99.90;;;;;;5114412;28;20014;-80
2022/01/10 05:21:35;;;;;;;;;;;3.20;99.90;;;;;;5114864;28;19919;-80
2022/01/10 05:24:03;;;;;;;;;;;3.20;99.90;;;;;;5114387;28;19920;-80
2022/01/10 05:26:33;;;;;;;;;;;3.20;99.90;;;;;;5114879;28;19920;-80
2022/01/10 05:29:02;;;;;;;;;;;3.10;99.90;;;;;;5114233;28;19919;-80
2022/01/10 05:31:33;;;;;;;;;;;3.10;99.90;;;;;;5114707;28;19966;-80
2022/01/10 05:34:01;;;;;;;;;;;3.10;99.90;;;;;;5114273;28;19965;-80
2022/01/10 05:36:29;;;;;;;;;;;3.10;99.90;;;;;;5114427;28;19987;-80
2022/01/10 05:38:57;;;;;;;;;;;3.10;99.90;;;;;;5113726;28;20022;-80
2022/01/10 05:41:26;;;;;;;;;;;3.10;99.90;;;;;;5113927;28;19955;-83
2022/01/10 05:43:56;;;;;;;;;;;3.10;99.90;;;;;;5114420;28;20006;-83
2022/01/10 05:46:24;;;;;;;;;;;3.10;99.90;;;;;;5114030;28;19933;-80
2022/01/10 05:48:59;;;;;;;;;;;3.10;99.90;;;;;;5113939;28;19926;-80
2022/01/10 05:51:29;;;;;;;;;;;3.10;99.90;;;;;;5114336;28;19955;-80
2022/01/10 05:53:57;;;;;;;;;;;3.10;99.90;;;;;;5113510;28;20022;-80
2022/01/10 05:56:25;;;;;;;;;;;3.10;99.90;;;;;;5113186;28;19983;-80
2022/01/10 05:58:53;;;;;;;;;;;3.10;99.90;;;;;;5113438;28;19919;-83
2022/01/10 06:01:23;;;;;;;;;;;3.10;99.90;;;;;;5114032;28;20010;-83
2022/01/10 06:03:51;;;;;;;;;;;3.10;99.90;;;;;;5113951;28;19931;-83
2022/01/10 06:06:20;;;;;;;;;;;3.10;99.90;;;;;;5113717;28;19920;-83
2022/01/10 06:08:48;;;;;;;;;;;3.10;99.90;;;;;;5113632;28;19920;-83
2022/01/10 06:11:16;;;;;;;;;;;3.10;99.90;;;;;;5114012;28;19958;-83
2022/01/10 06:13:44;;;;;;;;;;;3.10;99.90;;;;;;5113831;28;19919;-83
2022/01/10 06:16:13;;;;;;;;;;;3.20;99.90;;;;;;5113661;28;19947;-83
2022/01/10 06:18:42;;;;;;;;;;;3.20;99.90;;;;;;5113315;28;19923;-83
2022/01/10 06:21:10;;;;;;;;;;;3.20;99.90;;;;;;5113501;28;19962;-83
2022/01/10 06:23:39;;;;;;;;;;;3.20;99.90;;;;;;5113675;28;19969;-83
2022/01/10 06:26:07;;;;;;;;;;;3.20;99.90;;;;;;5113494;28;19959;-83
2022/01/10 06:28:35;;;;;;;;;;;3.30;99.90;;;;;;5113537;28;20002;-83
2022/01/10 06:31:03;;;;;;;;;;;3.30;99.90;;;;;;5113090;28;19943;-83
2022/01/10 06:33:31;;;;;;;;;;;3.30;99.90;;;;;;5113380;28;19981;-83
2022/01/10 06:36:01;;;;;;;;;;;3.40;99.90;;;;;;5113668;28;19995;-83
2022/01/10 06:38:29;;;;;;;;;;;3.40;99.90;;;;;;5113555;28;19951;-83
2022/01/10 06:40:57;;;;;;;;;;;3.40;99.90;;;;;;5112560;28;19969;-83
2022/01/10 06:43:25;;;;;;;;;;;3.40;99.90;;;;;;5113391;28;20002;-83
2022/01/10 06:45:53;;;;;;;;;;;3.40;99.90;;;;;;5113797;28;19926;-83
2022/01/10 06:48:21;;;;;;;;;;;3.40;99.90;;;;;;5113165;28;19923;-83
2022/01/10 06:50:50;;;;;;;;;;;3.50;99.90;;;;;;5113023;28;20056;-83
2022/01/10 06:53:19;;;;;;;;;;;3.50;99.90;;;;;;5112517;28;20143;-83
2022/01/10 06:55:47;;;;;;;;;;;3.50;99.90;;;;;;5113071;28;19966;-83
2022/01/10 06:58:18;;;;;;;;;;;3.60;99.90;;;;;;5112999;28;19963;-80
2022/01/10 07:00:46;;;;;;;;;;;3.60;99.90;;;;;;5112847;28;20011;-80
2022/01/10 07:03:14;;;;;;;;;;;3.60;99.90;;;;;;5112988;28;19920;-80
2022/01/10 07:05:43;;;;;;;;;;;3.60;99.90;;;;;;5113490;28;19974;-80
2022/01/10 07:08:11;;;;;;;;;;;3.60;99.90;;;;;;5117336;28;19966;-80
2022/01/10 07:10:40;;;;;;;;;;;3.60;99.90;;;;;;5116924;28;19955;-80
2022/01/10 07:13:09;;;;;;;;;;;3.70;99.90;;;;;;5117337;28;19924;-80
2022/01/10 07:15:37;;;;;;;;;;;3.70;99.90;;;;;;5116848;28;19951;-80
2022/01/10 07:18:05;;;;;;;;;;;3.60;99.90;;;;;;5116822;28;19975;-80
2022/01/10 07:20:33;;;;;;;;;;;3.70;99.90;;;;;;5116554;28;19959;-80
2022/01/10 07:23:01;;;;;;;;;;;3.70;99.90;;;;;;5117234;28;19966;-80
2022/01/10 07:25:29;;;;;;;;;;;3.70;99.90;;;;;;5117552;28;19986;-80
2022/01/10 07:27:59;;;;;;;;;;;3.80;99.90;;;;;;5116922;28;19950;-80
2022/01/10 07:30:27;;;;;;;;;;;3.80;99.90;;;;;;5116165;28;19919;-80
2022/01/10 07:32:56;;;;;;;;;;;3.80;99.90;;;;;;5116737;28;19963;-80
2022/01/10 07:35:24;;;;;;;;;;;3.80;99.90;;;;;;5116997;28;20015;-80
2022/01/10 07:37:52;;;;;;;;;;;3.90;99.90;;;;;;5117162;28;20002;-80
2022/01/10 07:40:20;;;;;;;;;;;3.90;99.90;;;;;;5116152;28;19981;-80
2022/01/10 07:42:49;;;;;;;;;;;3.80;99.90;;;;;;5116671;28;19923;-80
2022/01/10 07:45:19;;;;;;;;;;;3.80;99.90;;;;;;5117116;28;19919;-83
2022/01/10 07:47:47;;;;;;;;;;;3.80;99.90;;;;;;5116302;28;19920;-83
2022/01/10 07:50:16;;;;;;;;;;;3.60;99.90;;;;;;5116422;28;20060;-83
2022/01/10 07:52:44;;;;;;;;;;;3.50;99.90;;;;;;5116831;28;19923;-83
2022/01/10 07:55:12;;;;;;;;;;;3.40;99.90;;;;;;5115079;28;19919;-83
2022/01/10 07:57:41;;;;;;;;;;;3.30;99.90;;;;;;5116234;28;19994;-82
2022/01/10 08:00:09;;;;;;;;;;;3.20;99.90;;;;;;5115702;28;19961;-82
2022/01/10 08:02:39;;;;;;;;;;;3.10;99.90;;;;;;5116350;28;20010;-82
2022/01/10 08:05:09;;;;;;;;;;;3.10;99.90;;;;;;5116612;28;19920;-82
2022/01/10 08:07:37;;;;;;;;;;;3.10;99.90;;;;;;5116129;28;19919;-83
2022/01/10 08:10:06;;;;;;;;;;;3.00;99.90;;;;;;5115249;28;19959;-82
2022/01/10 08:12:34;;;;;;;;;;;3.00;99.90;;;;;;5115893;28;19980;-82
2022/01/10 08:15:02;;;;;;;;;;;3.10;99.90;;;;;;5115865;28;19954;-82
2022/01/10 08:17:30;;;;;;;;;;;3.10;99.90;;;;;;5114921;28;19986;-82
2022/01/10 08:20:00;;;;;;;;;;;3.00;99.90;;;;;;5115844;28;19962;-82
2022/01/10 08:22:28;;;;;;;;;;;3.00;99.90;;;;;;5115917;28;19955;-82
2022/01/10 08:24:56;;;;;;;;;;;3.00;99.90;;;;;;5115543;28;19951;-82
2022/01/10 08:27:24;;;;;;;;;;;3.00;99.90;;;;;;5115641;28;20015;-82
2022/01/10 08:29:52;;;;;;;;;;;3.00;99.90;;;;;;5114884;28;19991;-82
2022/01/10 08:32:20;;;;;;;;;;;3.00;99.90;;;;;;5115988;28;20019;-82
2022/01/10 08:34:48;;;;;;;;;;;3.00;99.90;;;;;;5115540;28;19955;-82
2022/01/10 08:37:18;;;;;;;;;;;3.10;99.90;;;;;;5115385;28;20006;-82
2022/01/10 08:39:49;;;;;;;;;;;3.10;99.90;;;;;;5114884;28;19977;-82
2022/01/10 08:42:17;;;;;;;;;;;3.10;99.90;;;;;;5115394;28;19966;-82
2022/01/10 08:44:46;;;;;;;;;;;3.10;99.90;;;;;;5115698;28;20003;-82
2022/01/10 08:47:19;;;;;;;;;;;3.10;99.90;;;;;;5115387;28;19923;-82
2022/01/10 08:49:48;;;;;;;;;;;3.10;99.90;;;;;;5114713;28;19923;-80
2022/01/10 08:52:18;;;;;;;;;;;3.20;99.90;;;;;;5115320;28;19962;-80
2022/01/10 08:54:47;;;;;;;;;;;3.20;99.90;;;;;;5115057;28;19991;-80
2022/01/10 08:57:15;;;;;;;;;;;3.20;99.90;;;;;;5115207;28;19967;-80
2022/01/10 08:59:43;;;;;;;;;;;3.20;99.90;;;;;;5114804;28;19973;-80
2022/01/10 09:02:13;;;;;;;;;;;3.20;99.90;;;;;;5115025;28;19919;-80
2022/01/10 09:04:41;;;;;;;;;;;3.20;99.90;;;;;;5114863;28;19928;-80
2022/01/10 09:07:09;;;;;;;;;;;3.20;99.90;;;;;;5114916;28;19951;-80
2022/01/10 09:09:39;;;;;;;;;;;3.20;99.90;;;;;;5114638;28;19966;-79
2022/01/10 09:12:08;;;;;;;;;;;3.10;99.90;;;;;;5115316;28;19919;-80
2022/01/10 09:14:39;;;;;;;;;;;3.20;99.90;;;;;;5114713;28;19983;-82
2022/01/10 09:17:07;;;;;;;;;;;3.20;99.90;;;;;;5114741;28;20015;-80
2022/01/10 09:19:35;;;;;;;;;;;3.20;99.90;;;;;;5114114;28;19965;-80
2022/01/10 09:22:03;;;;;;;;;;;3.20;99.90;;;;;;5114861;28;19986;-79
2022/01/10 09:24:31;;;;;;;;;;;3.20;99.90;;;;;;5114908;28;19923;-80
2022/01/10 09:27:07;;;;;;;;;;;3.20;99.90;;;;;;5114959;28;20011;-79
2022/01/10 09:29:40;;;;;;;;;;;3.20;99.90;;;;;;5113996;28;19962;-80
2022/01/10 09:32:09;;;;;;;;;;;3.20;99.90;;;;;;5114386;28;19926;-80
2022/01/10 09:34:37;;;;;;;;;;;3.20;99.90;;;;;;5113848;28;20014;-79
2022/01/10 09:37:05;;;;;;;;;;;3.20;99.90;;;;;;5113812;28;19920;-81
2022/01/10 09:39:33;;;;;;;;;;;3.20;99.90;;;;;;5113769;28;20019;-80
2022/01/10 09:42:01;;;;;;;;;;;3.20;99.90;;;;;;5112576;28;19954;-80
2022/01/10 09:44:31;;;;;;;;;;;3.30;99.90;;;;;;5112560;28;19919;-80
2022/01/10 09:47:00;;;;;;;;;;;3.20;99.90;;;;;;5113733;28;19974;-80
2022/01/10 09:49:28;;;;;;;;;;;3.20;99.90;;;;;;5105942;28;19959;-83
2022/01/10 09:51:56;;;;;;;;;;;3.30;99.90;;;;;;5104338;28;19966;-83
2022/01/10 09:54:24;;;;;;;;;;;3.40;99.90;;;;;;5095352;28;20027;-83
2022/01/10 09:56:53;;;;;;;;;;;3.30;99.90;;;;;;5113629;28;19955;-83
2022/01/10 09:59:21;;;;;;;;;;;3.40;99.90;;;;;;5113128;28;19919;-83
2022/01/10 10:01:51;;;;;;;;;;;3.40;99.90;;;;;;5113229;28;19924;-83
2022/01/10 10:04:20;;;;;;;;;;;3.40;99.90;;;;;;5113985;28;19927;-83
2022/01/10 10:06:48;;;;;;;;;;;3.50;99.90;;;;;;5113157;28;19920;-80
2022/01/10 10:09:17;;;;;;;;;;;3.50;99.90;;;;;;5114395;27;19920;-80
2022/01/10 10:11:47;;;;;;;;;;;3.50;99.90;;;;;;5102437;28;19927;-80
2022/01/10 10:14:17;;;;;;;;;;;3.60;99.90;;;;;;5113184;28;20007;-80
2022/01/10 10:16:49;;;;;;;;;;;3.60;99.90;;;;;;5112712;28;19954;-80
2022/01/10 10:19:20;;;;;;;;;;;3.70;99.90;;;;;;5111679;28;19919;-80
2022/01/10 10:21:48;;;;;;;;;;;3.80;99.90;;;;;;5112815;27;19928;-80
2022/01/10 10:24:19;;;;;;;;;;;3.80;99.90;;;;;;5105098;27;19955;-80
2022/01/10 10:26:48;;;;;;;;;;;3.80;99.90;;;;;;5105249;28;20006;-83
2022/01/10 10:29:18;;;;;;;;;;;3.90;99.90;;;;;;5112931;28;19920;-83
2022/01/10 10:31:47;;;;;;;;;;;3.90;99.90;;;;;;5113502;27;19920;-83
2022/01/10 10:34:21;;;;;;;;;;;3.90;99.90;;;;;;5126665;27;19919;-83
2022/01/10 10:36:59;;;;;;;;;;;4.00;99.90;;;;;;5116739;27;19920;-83
2022/01/10 10:39:28;;;;;;;;;;;3.90;99.90;;;;;;5112325;28;19930;-83
2022/01/10 10:41:58;;;;;;;;;;;4.00;99.90;;;;;;5112387;28;19964;-83
2022/01/10 10:44:27;;;;;;;;;;;4.00;99.90;;;;;;5110371;28;19923;-83
2022/01/10 10:46:56;;;;;;;;;;;4.00;99.90;;;;;;5109423;28;19924;-83
2022/01/10 10:49:31;;;;;;;;;;;4.00;99.90;;;;;;5112434;28;19920;-83
2022/01/10 10:52:01;;;;;;;;;;;4.00;99.90;;;;;;5113374;28;19919;-83
2022/01/10 10:54:32;;;;;;;;;;;4.10;99.90;;;;;;5112733;28;19920;-83
2022/01/10 10:57:00;;;;;;;;;;;4.10;99.90;;;;;;5112739;28;19919;-83
2022/01/10 10:59:31;;;;;;;;;;;4.10;99.90;;;;;;5112177;28;19976;-83
2022/01/10 11:02:00;;;;;;;;;;;4.10;99.90;;;;;;5112335;28;19920;-83
2022/01/10 11:04:36;;;;;;;;;;;4.00;99.90;;;;;;5108175;28;20018;-83
2022/01/10 11:07:04;;;;;;;;;;;4.00;99.90;;;;;;5092739;28;19924;-83
2022/01/10 11:09:33;;;;;;;;;;;4.00;99.90;;;;;;5091975;28;19924;-83
2022/01/10 11:12:01;;;;;;;;;;;4.00;99.90;;;;;;5092546;28;19943;-83
2022/01/10 11:14:29;;;;;;;;;;;4.00;99.90;;;;;;5106853;28;19965;-83
2022/01/10 11:16:57;;;;;;;;;;;4.00;99.90;;;;;;5100781;28;19959;-83
2022/01/10 11:19:27;;;;;;;;;;;3.90;99.90;;;;;;5112101;28;19992;-84
2022/01/10 11:22:04;;;;;;;;;;;3.90;99.90;;;;;;5112351;28;19928;-83
2022/01/10 11:24:43;;;;;;;;;;;3.80;99.90;;;;;;5112751;28;19923;-83
2022/01/10 11:27:28;;;;;;;;;;;3.90;99.90;;;;;;5113041;28;19920;-83
2022/01/10 11:29:57;;;;;;;;;;;3.90;99.90;;;;;;5111100;28;19920;-84
2022/01/10 11:32:48;;;;;;;;;;;3.90;99.90;;;;;;5111149;28;19972;-83
2022/01/10 11:35:35;;;;;;;;;;;3.80;99.90;;;;;;5092368;28;19924;-83
2022/01/10 11:38:26;;;;;;;;;;;3.80;99.90;;;;;;5097177;28;19919;-83
2022/01/10 11:40:57;;;;;;;;;;;3.70;99.90;;;;;;5106587;28;19971;-83
2022/01/10 11:43:38;;;;;;;;;;;3.60;99.90;;;;;;5094456;28;19920;-83
2022/01/10 11:46:16;;;;;;;;;;;3.60;99.90;;;;;;5110173;28;19927;-82
2022/01/10 11:48:46;;;;;;;;;;;3.60;99.90;;;;;;5107327;28;19958;-82
2022/01/10 11:51:16;;;;;;;;;;;3.60;99.90;;;;;;5101652;28;19955;-83
2022/01/10 11:53:46;;;;;;;;;;;3.60;99.90;;;;;;5097482;28;19967;-82
2022/01/10 11:56:26;;;;;;;;;;;3.60;99.90;;;;;;5115529;28;19920;-82
2022/01/10 11:59:07;;;;;;;;;;;3.70;99.90;;;;;;5115735;28;19955;-82
2022/01/10 12:01:37;;;;;;;;;;;3.70;99.90;;;;;;5114961;28;19963;-82
2022/01/10 12:04:06;;;;;;;;;;;3.80;99.90;;;;;;5115759;28;19926;-82
2022/01/10 12:06:34;;;;;;;;;;;3.70;99.90;;;;;;5115459;28;19979;-83
2022/01/10 12:09:03;;;;;;;;;;;3.70;99.90;;;;;;5115637;28;19920;-80
2022/01/10 12:11:32;;;;;;;;;;;3.80;99.90;;;;;;5112448;28;19919;-80
2022/01/10 12:14:01;;;;;;;;;;;3.90;99.90;;;;;;5096609;28;19927;-80
2022/01/10 12:16:29;;;;;;;;;;;3.80;99.90;;;;;;5095500;28;19920;-80
2022/01/10 12:18:58;;;;;;;;;;;3.90;99.90;;;;;;5095142;28;19924;-80
2022/01/10 12:21:26;;;;;;;;;;;4.00;99.90;;;;;;5107147;27;19966;-80
2022/01/10 12:23:55;;;;;;;;;;;4.10;99.90;;;;;;5115124;28;19993;-80
2022/01/10 12:26:23;;;;;;;;;;;4.10;99.90;;;;;;5115936;28;20019;-80
2022/01/10 12:28:54;;;;;;;;;;;4.20;99.90;;;;;;5117389;27;19982;-80
2022/01/10 12:31:24;;;;;;;;;;;4.10;99.90;;;;;;5136171;27;19919;-81
2022/01/10 12:33:53;;;;;;;;;;;4.10;99.90;;;;;;5131070;27;19920;-80
2022/01/10 12:36:22;;;;;;;;;;;4.10;99.90;;;;;;5114555;28;19920;-80
2022/01/10 12:38:51;;;;;;;;;;;4.10;99.90;;;;;;5114529;28;20027;-80
2022/01/10 12:41:20;;;;;;;;;;;4.10;99.90;;;;;;5114524;28;19920;-82
2022/01/10 12:43:49;;;;;;;;;;;4.10;99.90;;;;;;5114790;28;19958;-83
2022/01/10 12:46:19;;;;;;;;;;;4.10;99.90;;;;;;5119433;27;20002;-82
2022/01/10 12:48:50;;;;;;;;;;;4.10;99.90;;;;;;5118962;27;19919;-82
2022/01/10 12:51:19;;;;;;;;;;;4.10;99.90;;;;;;5101549;28;19958;-82
2022/01/10 12:54:04;;;;;;;;;;;4.20;99.90;;;;;;5108522;28;19919;-82
2022/01/10 12:56:33;;;;;;;;;;;4.20;99.90;;;;;;5114677;28;19919;-82
2022/01/10 12:59:01;;;;;;;;;;;4.20;99.90;;;;;;5113799;28;19959;-82
2022/01/10 13:01:31;;;;;;;;;;;4.20;99.90;;;;;;5113438;28;19959;-82
2022/01/10 13:04:00;;;;;;;;;;;4.30;99.90;;;;;;5100108;28;20007;-83
2022/01/10 13:06:29;;;;;;;;;;;4.40;99.90;;;;;;5114330;28;19975;-83
2022/01/10 13:08:58;;;;;;;;;;;4.40;99.90;;;;;;5113088;28;20010;-82
2022/01/10 13:11:33;;;;;;;;;;;4.40;99.90;;;;;;5113115;28;19927;-82
2022/01/10 13:14:08;;;;;;;;;;;4.40;99.90;;;;;;5114732;28;19919;-82
2022/01/10 13:16:38;;;;;;;;;;;4.40;99.90;;;;;;5113792;28;19974;-82
2022/01/10 13:19:07;;;;;;;;;;;4.40;99.90;;;;;;5113563;28;19919;-82
2022/01/10 13:21:39;;;;;;;;;;;4.40;99.90;;;;;;5110692;28;20035;-82
2022/01/10 13:24:10;;;;;;;;;;;4.40;99.90;;;;;;5103171;28;19920;-82
2022/01/10 13:26:52;;;;;;;;;;;4.40;99.90;;;;;;5105092;28;19951;-82
2022/01/10 13:29:30;;;;;;;;;;;4.30;99.90;;;;;;5103609;28;19924;-82
2022/01/10 13:32:11;;;;;;;;;;;4.30;99.90;;;;;;5114092;28;19970;-82
2022/01/10 13:34:39;;;;;;;;;;;4.20;99.90;;;;;;5114132;28;19920;-82
2022/01/10 13:37:09;;;;;;;;;;;4.20;99.90;;;;;;5113671;28;19919;-82
2022/01/10 13:39:39;;;;;;;;;;;4.20;99.90;;;;;;5113532;28;19942;-80
2022/01/10 13:42:08;;;;;;;;;;;4.20;99.90;;;;;;5113887;28;19919;-80
2022/01/10 13:44:49;;;;;;;;;;;4.20;99.90;;;;;;5114016;28;19920;-80
2022/01/10 13:47:18;;;;;;;;;;;4.20;99.90;;;;;;5098914;28;20011;-80
2022/01/10 13:49:47;;;;;;;;;;;4.20;99.90;;;;;;5113098;28;19974;-80
2022/01/10 13:52:16;;;;;;;;;;;4.30;99.90;;;;;;5113447;28;19920;-80
2022/01/10 13:54:45;;;;;;;;;;;4.30;99.90;;;;;;5110582;28;19980;-79
2022/01/10 13:57:22;;;;;;;;;;;4.30;99.90;;;;;;5109261;28;19962;-80
2022/01/10 14:00:05;;;;;;;;;;;4.30;99.90;;;;;;5099054;28;19963;-80
2022/01/10 14:02:38;;;;;;;;;;;4.30;99.90;;;;;;5102489;27;19926;-80
2022/01/10 14:05:18;;;;;;;;;;;4.40;99.90;;;;;;5105003;28;20322;-80
2022/01/10 14:07:47;;;;;;;;;;;4.40;99.90;;;;;;5101170;28;19966;-82
2022/01/10 14:10:16;;;;;;;;;;;4.40;99.90;;;;;;5092984;28;19955;-82
2022/01/10 14:12:44;;;;;;;;;;;4.40;99.90;;;;;;5111629;28;20018;-82
2022/01/10 14:15:15;;;;;;;;;;;4.40;99.90;;;;;;5111621;28;20006;-82
2022/01/10 14:17:45;;;;;;;;;;;4.40;99.90;;;;;;5114877;27;19923;-80
2022/01/10 14:20:13;;;;;;;;;;;4.40;99.90;;;;;;5112239;27;19963;-80
2022/01/10 14:22:41;;;;;;;;;;;4.40;99.90;;;;;;5097272;28;20018;-80
2022/01/10 14:25:12;;;;;;;;;;;4.30;99.90;;;;;;5111760;28;20010;-80
2022/01/10 14:27:40;;;;;;;;;;;4.30;99.90;;;;;;5105403;28;19931;-80
2022/01/10 14:30:08;;;;;;;;;;;4.20;99.90;;;;;;5101959;28;20002;-81
2022/01/10 14:32:37;;;;;;;;;;;4.20;99.90;;;;;;5113623;28;19966;-81
2022/01/10 14:35:07;;;;;;;;;;;4.10;99.90;;;;;;5093260;28;19920;-81
2022/01/10 14:37:36;;;;;;;;;;;4.10;99.90;;;;;;5112839;28;19920;-81
2022/01/10 14:40:05;;;;;;;;;;;4.10;99.90;;;;;;5112536;28;19919;-81
2022/01/10 14:42:35;;;;;;;;;;;4.00;99.90;;;;;;5112085;28;19967;-81
2022/01/10 14:45:04;;;;;;;;;;;4.00;99.90;;;;;;5113276;28;19923;-81
2022/01/10 14:47:32;;;;;;;;;;;4.00;99.90;;;;;;5109863;28;19965;-81
2022/01/10 14:50:00;;;;;;;;;;;4.00;99.90;;;;;;5108723;28;19919;-81
2022/01/10 14:52:30;;;;;;;;;;;4.00;99.90;;;;;;5112785;28;19920;-81
2022/01/10 14:54:58;;;;;;;;;;;3.90;99.90;;;;;;5112614;28;19920;-81